Time;durP1;ratioP1;P1;durP2;ratioP2;P2;SDS_P1;SDS_P2;PMS_P1;PMS_P2;Temp;Humidity;BMP_temperature;BMP_pressure;BME280_temperature;BME280_humidity;BME280_pressure;Samples;Min_cycle;Max_cycle;Signal;HPM_P1;HPM_P2
2023/05/10 00:01:56;;;;;;;;;;;;;;;27.26;42.65;93841.16;5026616;28;9027;-62
2023/05/10 00:04:36;;;;;;;;;;;;;;;27.24;42.66;93840.94;5004496;28;9123;-62
2023/05/10 00:07:22;;;;;;;;;;;;;;;27.26;42.74;93840.41;5019878;28;9163;-62
2023/05/10 00:09:50;;;;;;;;;;;;;;;27.23;42.80;93836.69;5021037;28;7022;-62
2023/05/10 00:12:25;;;;;;;;;;;;;;;27.25;42.75;93847.94;5020247;28;7481;-62
2023/05/10 00:14:58;;;;;;;;;;;;;;;27.24;42.54;93838.19;5015406;28;9010;-62
2023/05/10 00:17:26;;;;;;;;;;;;;;;27.22;42.66;93831.72;4999809;28;9039;-62
2023/05/10 00:19:52;;;;;;;;;;;;;;;27.22;42.73;93837.25;5015415;28;7371;-62
2023/05/10 00:22:23;;;;;;;;;;;;;;;27.23;42.86;93844.97;5017352;28;7218;-62
2023/05/10 00:24:59;;;;;;;;;;;;;;;27.24;42.88;93845.72;5018579;28;8814;-62
2023/05/10 00:27:25;;;;;;;;;;;;;;;27.24;42.50;93848.47;5014807;28;9073;-62
2023/05/10 00:30:01;;;;;;;;;;;;;;;27.22;43.00;93851.78;5022955;28;9165;-62
2023/05/10 00:32:53;;;;;;;;;;;;;;;27.24;42.74;93848.47;5018976;28;8714;-62
2023/05/10 00:35:19;;;;;;;;;;;;;;;27.22;42.73;93840.75;5014536;28;9395;-62
2023/05/10 00:37:48;;;;;;;;;;;;;;;27.22;42.79;93834.47;5013722;28;9430;-62
2023/05/10 00:40:45;;;;;;;;;;;;;;;27.23;42.58;93842.22;5013995;28;9476;-62
2023/05/10 00:43:23;;;;;;;;;;;;;;;27.20;42.76;93829.50;5015570;28;7104;-62
2023/05/10 00:45:55;;;;;;;;;;;;;;;27.21;42.47;93825.44;5006051;28;7524;-62
2023/05/10 00:48:40;;;;;;;;;;;;;;;27.19;42.63;93841.06;5027510;28;9191;-62
2023/05/10 00:51:22;;;;;;;;;;;;;;;27.18;42.74;93840.34;5019387;28;9205;-62
2023/05/10 00:53:55;;;;;;;;;;;;;;;27.17;43.00;93841.59;5000720;28;7262;-62
2023/05/10 00:56:23;;;;;;;;;;;;;;;27.17;42.63;93840.84;5019126;28;7438;-62
2023/05/10 00:58:55;;;;;;;;;;;;;;;27.17;42.79;93843.63;5024110;28;7337;-62
2023/05/10 01:01:33;;;;;;;;;;;;;;;27.17;43.46;93849.13;5007154;28;7508;-62
2023/05/10 01:04:25;;;;;;;;;;;;;;;27.16;43.40;93842.16;5015790;28;9539;-62
2023/05/10 01:07:08;;;;;;;;;;;;;;;27.12;42.71;93850.72;5008373;28;7261;-62
2023/05/10 01:09:35;;;;;;;;;;;;;;;27.11;43.03;93851.28;5017479;28;8958;-61
2023/05/10 01:12:06;;;;;;;;;;;;;;;27.09;43.02;93853.81;5004433;28;7215;-62
2023/05/10 01:14:41;;;;;;;;;;;;;;;27.10;42.68;93849.81;5012383;28;7279;-62
2023/05/10 01:17:10;;;;;;;;;;;;;;;27.12;42.95;93855.53;5000217;28;7286;-61
2023/05/10 01:19:39;;;;;;;;;;;;;;;27.11;43.46;93862.31;5012647;28;8430;-62
2023/05/10 01:22:30;;;;;;;;;;;;;;;27.09;42.87;93854.56;5015761;28;9007;-62
2023/05/10 01:24:56;;;;;;;;;;;;;;;27.08;43.04;93853.06;5009281;28;9389;-62
2023/05/10 01:27:44;;;;;;;;;;;;;;;27.08;42.86;93852.34;4959975;28;1517915;-62
2023/05/10 01:30:35;;;;;;;;;;;;;;;27.08;42.82;93855.13;5019336;28;9102;-61
2023/05/10 01:37:09;;;;;;;;;;;;;;;27.06;43.01;93847.34;5025535;28;7034;-62
2023/05/10 01:40:23;;;;;;;;;;;;;;;27.07;43.14;93851.59;5019736;28;7013;-62
2023/05/10 01:43:30;;;;;;;;;;;;;;;27.07;42.97;93850.84;4998370;28;7260;-62
2023/05/10 01:46:29;;;;;;;;;;;;;;;27.06;43.03;93855.63;5014075;28;9076;-62
2023/05/10 01:49:26;;;;;;;;;;;;;;;27.04;42.89;93858.19;5017022;28;9088;-62
2023/05/10 01:52:19;;;;;;;;;;;;;;;27.02;42.90;93857.22;4952058;28;7284;-62
2023/05/10 01:55:13;;;;;;;;;;;;;;;27.03;42.96;93865.00;4952455;28;9427;-62
2023/05/10 01:58:00;;;;;;;;;;;;;;;27.03;43.41;93864.25;4947016;28;9257;-62
2023/05/10 02:01:10;;;;;;;;;;;;;;;27.03;43.08;93862.25;4952779;28;7619;-62
2023/05/10 02:03:46;;;;;;;;;;;;;;;27.04;43.08;93862.97;4942089;28;9345;-62
2023/05/10 02:06:16;;;;;;;;;;;;;;;27.03;43.27;93858.72;4949775;28;9746;-62
2023/05/10 02:08:57;;;;;;;;;;;;;;;27.02;42.95;93866.25;4952178;28;7115;-62
2023/05/10 02:11:38;;;;;;;;;;;;;;;27.00;42.91;93860.53;4943464;28;7617;-62
2023/05/10 02:14:17;;;;;;;;;;;;;;;27.00;42.75;93855.00;4952566;28;9862;-62
2023/05/10 02:16:43;;;;;;;;;;;;;;;27.00;43.11;93854.25;4949278;28;7277;-62
2023/05/10 02:19:14;;;;;;;;;;;;;;;27.01;43.03;93858.53;4946395;28;8513;-62
2023/05/10 02:21:42;;;;;;;;;;;;;;;27.00;42.82;93857.03;4944243;28;7110;-62
2023/05/10 02:24:20;;;;;;;;;;;;;;;27.00;43.16;93852.25;4952040;28;7005;-62
2023/05/10 02:26:53;;;;;;;;;;;;;;;26.99;42.88;93861.78;4937771;28;7025;-62
2023/05/10 02:29:23;;;;;;;;;;;;;;;26.98;43.05;93865.84;4991168;28;9595;-62
2023/05/10 02:32:03;;;;;;;;;;;;;;;26.96;42.68;93857.34;5014160;28;9042;-62
2023/05/10 02:34:31;;;;;;;;;;;;;;;26.96;43.41;93848.31;5014673;28;9445;-62
2023/05/10 02:37:02;;;;;;;;;;;;;;;26.96;43.28;93849.06;5016857;28;8869;-61
2023/05/10 02:39:32;;;;;;;;;;;;;;;26.97;42.61;93847.78;5021056;28;7049;-62
2023/05/10 02:42:17;;;;;;;;;;;;;;;26.97;43.07;93842.25;5022822;28;9180;-62
2023/05/10 02:44:47;;;;;;;;;;;;;;;26.96;42.99;93853.84;5017455;28;8783;-62
2023/05/10 02:47:15;;;;;;;;;;;;;;;26.97;42.93;93858.81;5015813;28;9099;-62
2023/05/10 02:49:41;;;;;;;;;;;;;;;26.92;43.11;93856.94;5016105;28;7035;-62
2023/05/10 02:52:16;;;;;;;;;;;;;;;26.90;42.92;93849.16;5014858;28;8711;-62
2023/05/10 02:54:55;;;;;;;;;;;;;;;26.87;43.59;93849.50;5022320;28;7284;-62
2023/05/10 02:57:43;;;;;;;;;;;;;;;26.84;43.31;93845.78;5012046;28;8987;-62
2023/05/10 03:00:09;;;;;;;;;;;;;;;26.84;42.92;93850.56;5014346;28;9102;-62
2023/05/10 03:02:42;;;;;;;;;;;;;;;26.80;43.30;93850.88;5016160;28;7566;-62
2023/05/10 03:05:11;;;;;;;;;;;;;;;26.83;43.28;93858.13;5015209;28;7037;-62
2023/05/10 03:07:38;;;;;;;;;;;;;;;26.83;42.91;93860.13;5018009;28;9353;-62
2023/05/10 03:10:05;;;;;;;;;;;;;;;26.82;43.39;93856.63;5015377;28;9053;-62
2023/05/10 03:12:52;;;;;;;;;;;;;;;26.83;43.37;93860.13;5014102;28;8720;-62
2023/05/10 03:15:26;;;;;;;;;;;;;;;26.81;43.11;93870.94;5015328;28;9307;-62
2023/05/10 03:18:22;;;;;;;;;;;;;;;26.80;43.21;93869.44;5013763;28;9273;-62
2023/05/10 03:21:05;;;;;;;;;;;;;;;26.81;42.83;93863.41;5022146;28;8907;-62
2023/05/10 03:23:45;;;;;;;;;;;;;;;26.79;42.94;93859.72;5019488;28;8977;-62
2023/05/10 03:26:33;;;;;;;;;;;;;;;26.79;43.04;93865.22;5014895;28;8699;-62
2023/05/10 03:29:04;;;;;;;;;;;;;;;26.80;42.81;93863.94;5026564;28;7258;-62
2023/05/10 03:32:18;;;;;;;;;;;;;;;26.79;43.13;93862.47;4988648;28;8969;-62
2023/05/10 03:34:52;;;;;;;;;;;;;;;26.77;43.26;93862.97;5015745;28;7105;-62
2023/05/10 03:37:23;;;;;;;;;;;;;;;26.78;43.08;93866.47;5016348;28;7488;-62
2023/05/10 03:39:51;;;;;;;;;;;;;;;26.78;43.06;93855.44;5014846;28;7270;-62
2023/05/10 03:42:24;;;;;;;;;;;;;;;26.77;43.37;93859.50;5011163;28;9022;-62
2023/05/10 03:44:50;;;;;;;;;;;;;;;26.74;43.14;93849.50;5026003;28;7246;-61
2023/05/10 03:47:16;;;;;;;;;;;;;;;26.76;42.94;93861.50;5008692;28;8266;-62
2023/05/10 03:49:44;;;;;;;;;;;;;;;26.76;43.28;93867.03;5020645;28;7512;-62
2023/05/10 03:52:10;;;;;;;;;;;;;;;26.76;43.15;93866.28;5017160;28;9416;-62
2023/05/10 03:54:40;;;;;;;;;;;;;;;26.75;43.35;93859.28;5018161;28;9214;-62
2023/05/10 03:57:09;;;;;;;;;;;;;;;26.75;43.08;93860.00;5010392;28;7230;-62
2023/05/10 03:59:36;;;;;;;;;;;;;;;26.75;43.13;93859.28;5013878;28;9329;-62
2023/05/10 04:02:06;;;;;;;;;;;;;;;26.75;42.72;93859.28;4992224;28;7213;-62
2023/05/10 04:04:32;;;;;;;;;;;;;;;26.76;43.67;93866.28;5011821;28;8779;-62
2023/05/10 04:07:00;;;;;;;;;;;;;;;26.74;43.06;93863.31;5020329;28;7494;-62
2023/05/10 04:09:26;;;;;;;;;;;;;;;26.73;43.25;93873.59;5014668;28;7670;-62
2023/05/10 04:11:52;;;;;;;;;;;;;;;26.73;43.33;93870.13;5021497;28;8967;-62
2023/05/10 04:14:18;;;;;;;;;;;;;;;26.69;43.23;93873.16;5017800;28;7062;-62
2023/05/10 04:16:44;;;;;;;;;;;;;;;26.71;43.20;93878.88;5025982;28;8853;-62
2023/05/10 04:19:10;;;;;;;;;;;;;;;26.72;43.38;93876.88;5017425;28;7043;-62
2023/05/10 04:21:38;;;;;;;;;;;;;;;26.70;43.37;93873.91;5010751;28;9054;-62
2023/05/10 04:24:05;;;;;;;;;;;;;;;26.72;43.54;93879.63;5015699;28;9105;-62
2023/05/10 04:26:31;;;;;;;;;;;;;;;26.72;43.31;93874.09;5013062;28;7100;-62
2023/05/10 04:29:00;;;;;;;;;;;;;;;26.73;43.08;93878.38;4998455;28;9477;-62
2023/05/10 04:31:27;;;;;;;;;;;;;;;26.71;42.89;93873.34;5020419;28;9339;-62
2023/05/10 04:33:53;;;;;;;;;;;;;;;26.71;43.08;93880.88;4995141;28;9020;-63
2023/05/10 04:36:19;;;;;;;;;;;;;;;26.70;43.32;93868.38;4996329;28;7212;-62
2023/05/10 04:38:45;;;;;;;;;;;;;;;26.69;43.39;93883.44;5014406;28;8852;-62
2023/05/10 04:41:12;;;;;;;;;;;;;;;26.69;43.19;93899.97;5013370;28;7104;-62
2023/05/10 04:43:40;;;;;;;;;;;;;;;26.67;42.93;93891.50;5020324;28;9353;-61
2023/05/10 04:46:09;;;;;;;;;;;;;;;26.68;43.17;93915.06;5003296;28;7032;-62
2023/05/10 04:48:36;;;;;;;;;;;;;;;26.67;43.04;93910.81;5000062;28;9125;-62
2023/05/10 04:51:06;;;;;;;;;;;;;;;26.65;43.26;93913.34;5025318;28;8999;-63
2023/05/10 04:53:35;;;;;;;;;;;;;;;26.65;43.43;93914.09;5025692;28;9155;-62
2023/05/10 04:56:03;;;;;;;;;;;;;;;26.67;43.39;93914.31;5022344;28;8927;-62
2023/05/10 04:59:05;;;;;;;;;;;;;;;26.68;43.29;93912.31;5022795;28;7256;-61
2023/05/10 05:01:44;;;;;;;;;;;;;;;26.68;43.41;93920.59;5018689;28;9421;-62
2023/05/10 05:04:40;;;;;;;;;;;;;;;26.69;43.00;93922.81;5017743;28;9028;-62
2023/05/10 05:07:15;;;;;;;;;;;;;;;26.70;43.96;93934.59;4942757;28;9351;-62
2023/05/10 05:09:50;;;;;;;;;;;;;;;26.68;43.56;93928.84;4940572;28;7081;-62
2023/05/10 05:13:02;;;;;;;;;;;;;;;26.71;43.37;93925.03;4957324;28;8741;-61
2023/05/10 05:16:06;;;;;;;;;;;;;;;26.70;43.40;93932.56;4905550;29;7301;-62
2023/05/10 05:18:59;;;;;;;;;;;;;;;26.69;43.27;93936.59;4833689;29;7372;-61
2023/05/10 05:21:34;;;;;;;;;;;;;;;26.66;43.64;93918.34;4845235;29;7032;-61
2023/05/10 05:24:45;;;;;;;;;;;;;;;26.67;43.16;93928.09;4842486;29;9243;-62
2023/05/10 05:27:11;;;;;;;;;;;;;;;26.66;43.19;93937.66;4826820;29;9332;-62
2023/05/10 05:29:39;;;;;;;;;;;;;;;26.60;43.46;93934.25;4842440;29;9444;-62
2023/05/10 05:32:08;;;;;;;;;;;;;;;26.64;43.80;93931.91;4836782;29;9352;-62
2023/05/10 05:35:27;;;;;;;;;;;;;;;26.66;43.75;93928.66;4826630;29;7104;-62
2023/05/10 05:38:04;;;;;;;;;;;;;;;26.65;43.42;93936.16;4770903;29;7928;-62
2023/05/10 05:41:14;;;;;;;;;;;;;;;26.63;43.14;93935.97;4786109;29;8373;-62
2023/05/10 05:44:01;;;;;;;;;;;;;;;26.64;43.38;93944.97;4767482;30;8572;-63
2023/05/10 05:46:30;;;;;;;;;;;;;;;26.60;43.45;93939.75;4769172;30;9480;-61
2023/05/10 05:49:23;;;;;;;;;;;;;;;26.65;43.45;93949.22;4772616;29;7258;-61
2023/05/10 05:52:03;;;;;;;;;;;;;;;26.63;43.42;93958.03;4862686;29;9067;-62
2023/05/10 05:54:50;;;;;;;;;;;;;;;26.63;43.66;93962.78;4898749;29;7069;-61
2023/05/10 05:57:19;;;;;;;;;;;;;;;26.62;43.21;93955.81;4913082;29;9365;-62
2023/05/10 05:59:55;;;;;;;;;;;;;;;26.64;43.55;93958.78;4923137;29;9055;-62
2023/05/10 06:02:23;;;;;;;;;;;;;;;26.63;43.58;93963.53;4921588;29;7217;-62
2023/05/10 06:05:02;;;;;;;;;;;;;;;26.64;43.67;93958.78;4944361;28;7184;-62
2023/05/10 06:08:16;;;;;;;;;;;;;;;26.63;43.00;93962.78;4956518;28;8879;-62
2023/05/10 06:11:07;;;;;;;;;;;;;;;26.63;43.28;93960.03;4924075;29;7270;-62
2023/05/10 06:14:04;;;;;;;;;;;;;;;26.61;43.17;93965.34;4920759;28;8847;-62
2023/05/10 06:16:38;;;;;;;;;;;;;;;26.60;43.79;93963.88;4953800;28;7491;-62
2023/05/10 06:19:38;;;;;;;;;;;;;;;26.59;43.58;93963.13;4952422;28;7966;-62
2023/05/10 06:22:05;;;;;;;;;;;;;;;26.56;43.90;93968.94;4954599;28;7198;-61
2023/05/10 06:24:47;;;;;;;;;;;;;;;26.54;43.44;93976.97;4951411;28;9426;-61
2023/05/10 06:27:46;;;;;;;;;;;;;;;26.53;43.43;93972.75;4962818;28;7195;-61
2023/05/10 06:30:50;;;;;;;;;;;;;;;26.48;43.48;93976.34;4912371;29;7063;-61
2023/05/10 06:33:17;;;;;;;;;;;;;;;26.46;43.87;93973.38;4868084;29;7424;-61
2023/05/10 06:35:43;;;;;;;;;;;;;;;26.48;43.92;93974.34;4878076;29;9061;-62
2023/05/10 06:38:10;;;;;;;;;;;;;;;26.50;43.45;93977.31;4859886;29;7342;-62
2023/05/10 06:40:46;;;;;;;;;;;;;;;26.47;43.88;93978.34;4878507;29;7053;-62
2023/05/10 06:43:24;;;;;;;;;;;;;;;26.48;43.76;93981.84;4878471;29;9089;-62
2023/05/10 06:45:52;;;;;;;;;;;;;;;26.47;43.88;93978.34;4863194;29;8780;-62
2023/05/10 06:48:47;;;;;;;;;;;;;;;26.48;43.99;93985.38;4878414;29;7000;-62
2023/05/10 06:51:15;;;;;;;;;;;;;;;26.49;43.87;93992.34;4897208;29;9106;-62
2023/05/10 06:54:21;;;;;;;;;;;;;;;26.48;43.17;93990.13;4896811;29;8274;-62
2023/05/10 06:57:02;;;;;;;;;;;;;;;26.46;43.70;93987.91;4896765;29;8655;-62
2023/05/10 06:59:28;;;;;;;;;;;;;;;26.45;43.67;93993.94;4880941;29;8734;-62
2023/05/10 07:02:03;;;;;;;;;;;;;;;26.44;43.41;93984.19;4880565;29;9091;-62
2023/05/10 07:04:39;;;;;;;;;;;;;;;26.44;43.15;93990.44;4906146;29;8975;-62
2023/05/10 07:07:05;;;;;;;;;;;;;;;26.44;43.49;93995.97;5023966;28;7198;-61
2023/05/10 07:09:33;;;;;;;;;;;;;;;26.46;43.37;93987.16;5016501;28;7006;-62
2023/05/10 07:12:06;;;;;;;;;;;;;;;26.46;43.47;93987.16;5014876;28;7076;-62
2023/05/10 07:14:47;;;;;;;;;;;;;;;26.45;44.06;93985.66;5013290;28;7287;-62
2023/05/10 07:17:33;;;;;;;;;;;;;;;26.45;43.83;93988.41;5008357;28;8890;-62
2023/05/10 07:20:20;;;;;;;;;;;;;;;26.44;43.60;93997.97;5019749;28;7546;-62
2023/05/10 07:22:54;;;;;;;;;;;;;;;26.46;43.48;93998.19;5016376;28;7292;-62
2023/05/10 07:25:21;;;;;;;;;;;;;;;26.45;43.43;93997.44;5013680;28;7982;-61
2023/05/10 07:27:48;;;;;;;;;;;;;;;26.43;43.73;93999.22;5018631;28;7268;-62
2023/05/10 07:30:14;;;;;;;;;;;;;;;26.44;43.22;93998.72;5017714;28;8236;-62
2023/05/10 07:32:41;;;;;;;;;;;;;;;26.45;43.22;93997.44;5014929;28;9117;-62
2023/05/10 07:35:08;;;;;;;;;;;;;;;26.45;43.01;93996.69;5015932;28;6993;-62
2023/05/10 07:37:56;;;;;;;;;;;;;;;26.45;43.38;93999.44;5013307;28;7084;-62
2023/05/10 07:40:29;;;;;;;;;;;;;;;26.43;43.71;93994.47;5020869;28;9265;-62
2023/05/10 07:42:57;;;;;;;;;;;;;;;26.43;43.99;94002.72;5018312;28;7141;-62
2023/05/10 07:45:24;;;;;;;;;;;;;;;26.45;43.24;94010.47;5013209;28;9076;-62
2023/05/10 07:47:51;;;;;;;;;;;;;;;26.43;43.15;94016.53;5014236;28;7204;-62
2023/05/10 07:50:22;;;;;;;;;;;;;;;26.44;43.30;94020.78;5025920;28;9225;-62
2023/05/10 07:52:50;;;;;;;;;;;;;;;26.41;43.75;94021.06;5020429;28;7252;-62
2023/05/10 07:55:18;;;;;;;;;;;;;;;26.42;43.80;94025.34;5020148;28;7168;-61
2023/05/10 07:57:44;;;;;;;;;;;;;;;26.42;43.65;94031.59;4999445;28;7471;-61
2023/05/10 08:00:31;;;;;;;;;;;;;;;26.40;43.51;94027.88;5020548;28;7300;-62
2023/05/10 08:03:36;;;;;;;;;;;;;;;26.39;43.58;94038.16;5017049;28;7216;-62
2023/05/10 08:06:15;;;;;;;;;;;;;;;26.40;43.85;94036.16;4935087;29;8578;-62
2023/05/10 08:08:45;;;;;;;;;;;;;;;26.39;43.76;94035.38;4925449;29;9535;-62
2023/05/10 08:11:21;;;;;;;;;;;;;;;26.42;43.35;94039.13;4924381;29;9117;-62
2023/05/10 08:14:06;;;;;;;;;;;;;;;26.43;43.48;94030.31;4918174;29;7478;-62
2023/05/10 08:16:32;;;;;;;;;;;;;;;26.44;44.26;94034.56;4920870;29;9193;-62
2023/05/10 08:19:27;;;;;;;;;;;;;;;26.44;43.83;94029.06;4919441;29;7027;-62
2023/05/10 08:22:04;;;;;;;;;;;;;;;26.43;43.66;94043.34;4880088;29;7114;-62
2023/05/10 08:24:30;;;;;;;;;;;;;;;26.42;44.53;94028.84;4880820;29;9258;-62
2023/05/10 08:27:05;;;;;;;;;;;;;;;26.45;43.93;94038.06;4861862;29;9093;-62
2023/05/10 08:29:31;;;;;;;;;;;;;;;26.43;43.91;94035.06;4855003;29;7118;-61
2023/05/10 08:32:30;;;;;;;;;;;;;;;26.40;44.39;94038.91;4858534;29;6966;-62
2023/05/10 08:35:07;;;;;;;;;;;;;;;26.42;44.60;94036.34;4807217;29;7158;-62
2023/05/10 08:38:01;;;;;;;;;;;;;;;26.43;44.48;94035.06;4838431;29;7249;-62
2023/05/10 08:40:40;;;;;;;;;;;;;;;26.42;44.88;94030.84;4859451;29;9407;-62
2023/05/10 08:43:18;;;;;;;;;;;;;;;26.43;44.75;94043.34;4853927;29;8139;-61
2023/05/10 08:46:05;;;;;;;;;;;;;;;26.43;44.74;94046.84;4875187;29;9153;-62
2023/05/10 08:48:47;;;;;;;;;;;;;;;26.46;44.11;94053.34;4859638;29;7317;-62
2023/05/10 08:51:43;;;;;;;;;;;;;;;26.45;44.21;94049.09;4861419;29;9103;-62
2023/05/10 08:54:31;;;;;;;;;;;;;;;26.45;44.63;94046.31;4852030;29;7022;-62
2023/05/10 08:57:06;;;;;;;;;;;;;;;26.45;44.42;94046.31;4861406;29;9117;-62
2023/05/10 08:59:44;;;;;;;;;;;;;;;26.47;44.49;94058.31;4945638;28;7077;-62
2023/05/10 09:02:45;;;;;;;;;;;;;;;26.46;44.06;94054.09;4931495;28;9284;-62
2023/05/10 09:05:55;;;;;;;;;;;;;;;26.45;44.05;94058.09;4937567;28;7058;-62
2023/05/10 09:08:44;;;;;;;;;;;;;;;26.45;44.33;94065.63;4938649;28;8964;-62
2023/05/10 09:11:20;;;;;;;;;;;;;;;26.44;44.34;94064.91;5003518;28;7278;-62
2023/05/10 09:13:58;;;;;;;;;;;;;;;26.45;44.62;94062.88;5031465;28;9065;-62
2023/05/10 09:16:26;;;;;;;;;;;;;;;26.44;44.64;94066.91;5015414;28;9149;-62
2023/05/10 09:18:53;;;;;;;;;;;;;;;26.44;44.31;94064.91;5021053;28;9180;-62
2023/05/10 09:21:53;;;;;;;;;;;;;;;26.46;44.95;94064.38;5032210;28;7119;-62
2023/05/10 09:24:29;;;;;;;;;;;;;;;26.47;44.36;94063.13;5029317;28;7241;-61
2023/05/10 09:26:58;;;;;;;;;;;;;;;26.49;44.04;94057.81;5023139;28;7064;-62
2023/05/10 09:29:26;;;;;;;;;;;;;;;26.50;44.30;94057.28;5015826;28;9115;-61
2023/05/10 09:31:55;;;;;;;;;;;;;;;26.50;44.10;94062.81;5020526;28;9044;-62
2023/05/10 09:34:40;;;;;;;;;;;;;;;26.45;44.45;94057.34;5018261;28;9121;-62
2023/05/10 09:37:13;;;;;;;;;;;;;;;26.46;44.10;94056.09;5022499;28;7288;-61
2023/05/10 09:39:39;;;;;;;;;;;;;;;26.45;44.35;94057.34;5014660;28;7572;-61
2023/05/10 09:42:22;;;;;;;;;;;;;;;26.44;44.75;94056.63;5015269;28;8948;-61
2023/05/10 09:45:15;;;;;;;;;;;;;;;26.47;44.58;94060.34;5007828;28;9199;-62
2023/05/10 09:47:45;;;;;;;;;;;;;;;26.45;44.74;94055.34;5026131;28;9549;-62
2023/05/10 09:50:30;;;;;;;;;;;;;;;26.46;44.22;94061.63;4991587;28;7400;-62
2023/05/10 09:53:25;;;;;;;;;;;;;;;26.46;44.99;94047.81;5024984;28;9123;-62
2023/05/10 09:56:06;;;;;;;;;;;;;;;26.46;44.81;94050.59;4957975;28;9059;-62
2023/05/10 09:58:37;;;;;;;;;;;;;;;26.46;44.38;94053.34;4977189;28;9079;-62
2023/05/10 10:01:25;;;;;;;;;;;;;;;26.45;44.99;94052.59;4956866;28;8773;-62
2023/05/10 10:04:05;;;;;;;;;;;;;;;26.43;44.66;94049.63;4972526;28;9179;-62
2023/05/10 10:07:11;;;;;;;;;;;;;;;26.45;44.88;94051.84;4964001;28;7354;-62
2023/05/10 10:09:48;;;;;;;;;;;;;;;26.45;44.14;94049.84;4964629;28;9058;-62
2023/05/10 10:12:36;;;;;;;;;;;;;;;26.44;44.36;94055.88;4984381;28;7287;-63
2023/05/10 10:15:22;;;;;;;;;;;;;;;26.44;44.83;94055.88;4974124;28;7495;-63
2023/05/10 10:18:05;;;;;;;;;;;;;;;26.44;44.39;94044.84;4965097;28;7233;-63
2023/05/10 10:20:43;;;;;;;;;;;;;;;26.44;44.43;94047.59;4973837;28;8782;-63
2023/05/10 10:23:19;;;;;;;;;;;;;;;26.43;44.91;94054.38;4955212;28;7405;-63
2023/05/10 10:25:48;;;;;;;;;;;;;;;26.44;44.18;94044.84;4967067;28;7047;-62
2023/05/10 10:28:26;;;;;;;;;;;;;;;26.45;44.45;94046.31;4960304;28;9324;-63
2023/05/10 10:31:32;;;;;;;;;;;;;;;26.46;44.84;94053.34;4985580;28;9442;-62
2023/05/10 10:34:52;;;;;;;;;;;;;;;26.46;44.30;94061.63;4939990;28;9379;-62
2023/05/10 10:37:20;;;;;;;;;;;;;;;26.45;44.34;94057.34;4917964;29;9133;-63
2023/05/10 10:40:36;;;;;;;;;;;;;;;26.44;44.40;94058.63;4934466;29;9420;-63
2023/05/10 10:47:11;;;;;;;;;;;;;;;26.40;44.70;94058.19;4922003;29;7353;-63
2023/05/10 10:50:01;;;;;;;;;;;;;;;26.40;44.84;94061.72;4880810;29;8848;-62
2023/05/10 10:52:51;;;;;;;;;;;;;;;26.41;44.87;94059.69;5047923;28;7084;-60
2023/05/10 10:55:47;;;;;;;;;;;;;;;26.40;44.40;94049.94;5036829;28;9075;-61
2023/05/10 10:58:33;;;;;;;;;;;;;;;26.38;44.45;94055.22;5050593;28;7249;-60
2023/05/10 11:01:53;;;;;;;;;;;;;;;26.38;44.72;94053.19;5049891;28;8766;-60
2023/05/10 11:04:20;;;;;;;;;;;;;;;26.36;44.90;94060.53;5021470;28;8731;-60
2023/05/10 11:07:17;;;;;;;;;;;;;;;26.35;45.28;94068.03;5028987;28;8943;-60
2023/05/10 11:10:04;;;;;;;;;;;;;;;26.38;44.67;94063.50;5040782;28;9269;-60
2023/05/10 11:13:00;;;;;;;;;;;;;;;26.40;44.37;94060.97;5040834;28;7014;-60
2023/05/10 11:15:37;;;;;;;;;;;;;;;26.40;44.58;94053.44;5021250;28;7060;-59
2023/05/10 11:18:23;;;;;;;;;;;;;;;26.39;45.04;94062.97;5028336;28;8879;-62
2023/05/10 11:21:21;;;;;;;;;;;;;;;26.42;44.86;94055.66;5029055;28;7231;-61
2023/05/10 11:23:47;;;;;;;;;;;;;;;26.39;44.64;94051.94;5034690;28;8985;-62
2023/05/10 11:26:50;;;;;;;;;;;;;;;26.41;44.78;94051.41;5026064;28;9069;-62
2023/05/10 11:29:18;;;;;;;;;;;;;;;26.40;43.92;94050.69;5025822;28;7096;-62
2023/05/10 11:35:20;;;;;;;;;;;;;;;26.37;44.56;94050.97;5025564;28;7857;-62
2023/05/10 11:37:48;;;;;;;;;;;;;;;26.38;44.34;94042.16;5014868;28;9107;-62
2023/05/10 11:40:15;;;;;;;;;;;;;;;26.38;44.70;94044.19;5011215;28;7297;-61
2023/05/10 11:42:50;;;;;;;;;;;;;;;26.37;44.27;94042.69;5019574;28;9051;-62
2023/05/10 11:45:34;;;;;;;;;;;;;;;26.36;43.79;94046.72;5007817;28;9586;-62
2023/05/10 11:48:22;;;;;;;;;;;;;;;26.38;44.19;94055.22;5018023;28;7216;-62
2023/05/10 11:50:48;;;;;;;;;;;;;;;26.38;43.77;94052.47;5009626;28;9101;-62
2023/05/10 11:53:16;;;;;;;;;;;;;;;26.37;44.00;94051.72;5006868;28;8173;-62
2023/05/10 11:55:53;;;;;;;;;;;;;;;26.37;44.33;94048.22;5012435;28;8058;-62
2023/05/10 11:58:21;;;;;;;;;;;;;;;26.38;44.35;94055.22;5009800;28;9133;-62
2023/05/10 12:01:12;;;;;;;;;;;;;;;26.36;44.27;94052.25;5020439;28;9019;-62
2023/05/10 12:03:40;;;;;;;;;;;;;;;26.37;44.07;94048.22;5005439;28;8720;-62
2023/05/10 12:06:08;;;;;;;;;;;;;;;26.36;43.99;94050.22;4997579;28;9379;-62
2023/05/10 12:08:34;;;;;;;;;;;;;;;26.34;43.89;94041.00;5012559;28;9422;-62
2023/05/10 12:11:11;;;;;;;;;;;;;;;26.35;44.09;94045.22;5004277;28;8784;-62
2023/05/10 12:13:40;;;;;;;;;;;;;;;26.35;44.18;94045.22;5019040;28;9471;-62
2023/05/10 12:16:20;;;;;;;;;;;;;;;26.35;43.74;94048.00;5010930;28;7113;-62
2023/05/10 12:18:55;;;;;;;;;;;;;;;26.35;43.93;94034.19;5020210;28;7088;-62
2023/05/10 12:21:33;;;;;;;;;;;;;;;26.31;44.37;94031.00;5023221;28;9135;-62
2023/05/10 12:24:17;;;;;;;;;;;;;;;26.34;43.63;94033.44;5015880;28;9143;-62
2023/05/10 12:26:45;;;;;;;;;;;;;;;26.35;44.14;94039.72;4995581;28;7042;-62
2023/05/10 12:29:18;;;;;;;;;;;;;;;26.35;43.58;94031.44;5014306;28;8303;-62
2023/05/10 12:32:02;;;;;;;;;;;;;;;26.34;43.77;94033.44;5004207;28;7048;-62
2023/05/10 12:34:35;;;;;;;;;;;;;;;26.34;44.32;94041.00;5007924;28;7291;-62
2023/05/10 12:37:05;;;;;;;;;;;;;;;26.34;44.21;94043.75;4996950;28;8095;-62
2023/05/10 12:39:42;;;;;;;;;;;;;;;26.31;44.32;94042.03;5001565;28;9451;-62
2023/05/10 12:42:14;;;;;;;;;;;;;;;26.33;44.07;94050.53;5030320;28;7030;-62
2023/05/10 12:45:12;;;;;;;;;;;;;;;26.32;43.84;94049.06;5008411;28;9057;-62
2023/05/10 12:48:17;;;;;;;;;;;;;;;26.32;43.90;94055.28;4993558;28;8662;-62
2023/05/10 12:50:43;;;;;;;;;;;;;;;26.31;43.51;94059.34;4990138;28;7030;-62
2023/05/10 12:53:18;;;;;;;;;;;;;;;26.27;43.60;94053.38;4993054;28;7031;-62
2023/05/10 12:55:55;;;;;;;;;;;;;;;26.29;43.73;94061.88;4993490;28;8797;-62
2023/05/10 12:59:02;;;;;;;;;;;;;;;26.32;44.07;94071.13;4993790;28;9039;-62
2023/05/10 13:01:37;;;;;;;;;;;;;;;26.29;43.52;94064.63;4985162;28;7271;-62
2023/05/10 13:04:14;;;;;;;;;;;;;;;26.30;43.64;94070.88;4977333;28;7702;-62
2023/05/10 13:06:58;;;;;;;;;;;;;;;26.31;44.21;94069.59;4977285;28;7184;-62
2023/05/10 13:09:26;;;;;;;;;;;;;;;26.31;44.20;94070.34;4990556;28;9512;-62
2023/05/10 13:11:56;;;;;;;;;;;;;;;26.32;43.38;94062.84;4992020;28;9531;-62
2023/05/10 13:14:36;;;;;;;;;;;;;;;26.30;43.43;94051.56;4976357;28;9043;-62
2023/05/10 13:17:42;;;;;;;;;;;;;;;26.33;43.91;94056.78;4976929;28;7005;-62
2023/05/10 13:20:28;;;;;;;;;;;;;;;26.33;43.54;94050.53;4988465;28;8719;-62
2023/05/10 13:23:27;;;;;;;;;;;;;;;26.34;43.24;94044.47;4991498;28;7270;-62
2023/05/10 13:26:38;;;;;;;;;;;;;;;26.35;43.83;94048.00;4973267;28;9047;-62
2023/05/10 13:29:22;;;;;;;;;;;;;;;26.34;43.94;94046.50;4932997;29;7458;-62
2023/05/10 13:31:48;;;;;;;;;;;;;;;26.33;43.48;94045.75;4950813;28;7033;-62
2023/05/10 13:34:20;;;;;;;;;;;;;;;26.33;44.11;94045.00;4931972;29;8786;-62
2023/05/10 13:36:46;;;;;;;;;;;;;;;26.34;43.97;94046.50;4946659;28;7328;-62
2023/05/10 13:39:15;;;;;;;;;;;;;;;26.32;43.63;94027.72;4948123;28;7611;-62
2023/05/10 13:41:44;;;;;;;;;;;;;;;26.33;44.05;94031.22;4952307;28;9084;-62
2023/05/10 13:44:13;;;;;;;;;;;;;;;26.34;44.05;94035.50;4948784;28;8687;-62
2023/05/10 13:46:50;;;;;;;;;;;;;;;26.31;43.47;94039.28;4953829;28;9658;-62
2023/05/10 13:49:47;;;;;;;;;;;;;;;26.32;43.60;94043.53;4953809;28;9164;-62
2023/05/10 13:52:27;;;;;;;;;;;;;;;26.31;43.77;94050.31;4900295;29;9280;-62
2023/05/10 13:55:02;;;;;;;;;;;;;;;26.32;43.39;94063.56;4899066;29;8980;-62
2023/05/10 13:57:37;;;;;;;;;;;;;;;26.33;43.87;94056.78;4896781;29;9012;-62
2023/05/10 14:00:22;;;;;;;;;;;;;;;26.34;43.65;94035.50;4913826;29;7048;-62
2023/05/10 14:02:51;;;;;;;;;;;;;;;26.32;43.48;94022.22;4953144;28;7442;-62
2023/05/10 14:05:36;;;;;;;;;;;;;;;26.27;44.10;94009.28;4957594;28;9120;-62
2023/05/10 14:08:31;;;;;;;;;;;;;;;26.26;43.66;94009.78;4966955;28;7217;-63
2023/05/10 14:11:32;;;;;;;;;;;;;;;26.26;44.03;94009.78;4953495;28;7256;-62